Aviation Digital Data Service (ADDS)

Output produced by METARs form (0939 UTC 26 May 2015)
found at http://www.aviationweather.gov/adds/metars/
 
KLGA 260830Z 2609/2706 22010KT P6SM FEW250 
     FM261800 19016G22KT P6SM SCT250 
     FM270300 20012KT P6SM BKN250